createdAt,value
2022-09-09T00:02:08.256Z,18.40
2022-09-09T00:04:39.009Z,18.30
2022-09-09T00:07:09.748Z,18.20
2022-09-09T00:09:42.855Z,18.10
2022-09-09T00:12:14.564Z,18.10
2022-09-09T00:14:51.826Z,18.00
2022-09-09T00:17:27.924Z,17.90
2022-09-09T00:19:59.934Z,17.80
2022-09-09T00:22:32.593Z,17.70
2022-09-09T00:25:06.079Z,17.50
2022-09-09T00:27:39.889Z,17.50
2022-09-09T00:30:21.349Z,17.50
2022-09-09T00:32:51.640Z,17.60
2022-09-09T00:35:27.894Z,17.50
2022-09-09T00:38:00.177Z,17.30
2022-09-09T00:40:32.726Z,17.30
2022-09-09T00:43:08.834Z,17.30
2022-09-09T00:45:51.558Z,17.20
2022-09-09T00:48:21.552Z,17.20
2022-09-09T00:50:54.295Z,17.10
2022-09-09T00:53:28.225Z,17.10
2022-09-09T00:55:59.861Z,17.10
2022-09-09T00:58:29.893Z,17.10
2022-09-09T01:01:09.466Z,17.00
2022-09-09T01:03:40.609Z,17.00
2022-09-09T01:06:18.279Z,17.10
2022-09-09T01:09:06.587Z,17.10
2022-09-09T01:11:39.799Z,17.10
2022-09-09T01:14:16.666Z,16.90
2022-09-09T01:16:48.947Z,16.90
2022-09-09T01:19:23.249Z,16.80
2022-09-09T01:21:56.108Z,16.70
2022-09-09T01:24:30.129Z,16.70
2022-09-09T01:27:04.295Z,16.60
2022-09-09T01:29:33.925Z,16.60
2022-09-09T01:32:04.062Z,16.50
2022-09-09T01:34:35.561Z,16.50
2022-09-09T01:37:07.443Z,16.50
2022-09-09T01:39:38.725Z,16.50
2022-09-09T01:42:12.510Z,16.50
2022-09-09T01:44:43.207Z,16.40
2022-09-09T01:47:13.406Z,16.40
2022-09-09T01:50:04.577Z,16.20
2022-09-09T01:52:52.710Z,16.20
2022-09-09T01:55:27.861Z,16.20
2022-09-09T01:58:05.023Z,16.10
2022-09-09T02:00:37.867Z,16.00
2022-09-09T02:03:13.593Z,16.00
2022-09-09T02:05:44.853Z,16.00
2022-09-09T02:08:20.489Z,15.90
2022-09-09T02:10:52.766Z,15.90
2022-09-09T02:13:57.390Z,15.80
2022-09-09T02:16:30.469Z,15.90
2022-09-09T02:19:03.877Z,15.70
2022-09-09T02:21:35.327Z,15.80
2022-09-09T02:24:09.581Z,15.80
2022-09-09T02:26:40.832Z,15.70
2022-09-09T02:29:11.989Z,15.60
2022-09-09T02:31:44.932Z,15.60
2022-09-09T02:34:15.181Z,15.70
2022-09-09T02:36:47.233Z,15.70
2022-09-09T02:39:17.109Z,15.60
2022-09-09T02:41:55.973Z,15.60
2022-09-09T02:44:25.414Z,15.60
2022-09-09T02:47:04.718Z,15.60
2022-09-09T02:49:39.879Z,15.50
2022-09-09T02:52:10.501Z,15.50
2022-09-09T02:54:41.580Z,15.50
2022-09-09T02:57:13.887Z,15.50
2022-09-09T02:59:43.641Z,15.40
2022-09-09T03:02:14.811Z,15.40
2022-09-09T03:04:46.040Z,15.30
2022-09-09T03:07:15.695Z,15.30
2022-09-09T03:09:45.221Z,15.30
2022-09-09T03:12:15.389Z,15.30
2022-09-09T03:14:47.047Z,15.40
2022-09-09T03:17:18.436Z,15.40
2022-09-09T03:19:48.312Z,15.30
2022-09-09T03:22:17.909Z,15.20
2022-09-09T03:24:48.355Z,15.10
2022-09-09T03:27:17.871Z,15.00
2022-09-09T03:29:47.433Z,15.00
2022-09-09T03:32:18.939Z,15.10
2022-09-09T03:34:51.282Z,15.10
2022-09-09T03:37:20.805Z,15.10
2022-09-09T03:39:50.261Z,15.10
2022-09-09T03:42:21.196Z,15.10
2022-09-09T03:44:51.969Z,15.20
2022-09-09T03:47:23.618Z,15.10
2022-09-09T03:49:53.097Z,15.00
2022-09-09T03:52:23.915Z,15.00
2022-09-09T03:54:53.545Z,15.00
2022-09-09T03:57:23.295Z,15.00
2022-09-09T03:59:52.968Z,14.90
2022-09-09T04:02:24.186Z,15.00
2022-09-09T04:04:53.671Z,15.00
2022-09-09T04:07:23.173Z,15.00
2022-09-09T04:09:52.670Z,15.00
2022-09-09T04:12:22.706Z,14.90
2022-09-09T04:14:52.132Z,14.90
2022-09-09T04:17:21.638Z,14.90
2022-09-09T04:19:53.187Z,14.80
2022-09-09T04:22:24.063Z,14.80
2022-09-09T04:24:53.574Z,14.80
2022-09-09T04:27:23.020Z,14.90
2022-09-09T04:29:52.498Z,14.80
2022-09-09T04:32:22.645Z,14.80
2022-09-09T04:34:53.743Z,14.70
2022-09-09T04:37:23.248Z,14.60
2022-09-09T04:39:52.901Z,14.50
2022-09-09T04:42:22.384Z,14.50
2022-09-09T04:44:52.120Z,14.50
2022-09-09T04:47:21.710Z,14.40
2022-09-09T04:49:51.334Z,14.40
2022-09-09T04:52:22.661Z,14.40
2022-09-09T04:54:52.298Z,14.30
2022-09-09T04:57:21.736Z,14.30
2022-09-09T04:59:51.736Z,14.30
2022-09-09T05:02:21.417Z,14.20
2022-09-09T05:04:51.428Z,14.20
2022-09-09T05:07:22.765Z,14.30
2022-09-09T05:09:52.233Z,14.20
2022-09-09T05:12:21.678Z,14.10
2022-09-09T05:14:52.011Z,14.00
2022-09-09T05:17:21.531Z,14.00
2022-09-09T05:19:51.569Z,14.00
2022-09-09T05:22:26.153Z,14.00
2022-09-09T05:24:55.725Z,13.90
2022-09-09T05:27:25.151Z,13.90
2022-09-09T05:29:54.632Z,13.80
2022-09-09T05:32:24.424Z,13.80
2022-09-09T05:34:54.033Z,13.90
2022-09-09T05:37:25.329Z,13.90
2022-09-09T05:39:54.984Z,13.90
2022-09-09T05:42:24.629Z,13.90
2022-09-09T05:44:56.160Z,13.90
2022-09-09T05:47:25.891Z,13.80
2022-09-09T05:49:55.319Z,13.90
2022-09-09T05:52:27.505Z,13.90
2022-09-09T05:54:58.589Z,13.80
2022-09-09T05:57:28.082Z,13.80
2022-09-09T05:59:57.589Z,13.70
2022-09-09T06:02:27.225Z,13.70
2022-09-09T06:05:00.510Z,13.80
2022-09-09T06:07:31.928Z,13.80
2022-09-09T06:10:01.631Z,13.80
2022-09-09T06:12:31.097Z,13.80
2022-09-09T06:15:00.552Z,13.80
2022-09-09T06:17:30.072Z,13.80
2022-09-09T06:20:00.981Z,13.70
2022-09-09T06:22:32.479Z,13.60
2022-09-09T06:25:02.759Z,13.50
2022-09-09T06:27:32.532Z,13.50
2022-09-09T06:30:02.332Z,13.40
2022-09-09T06:32:32.108Z,13.40
2022-09-09T06:35:02.958Z,13.40
2022-09-09T06:37:34.027Z,13.40
2022-09-09T06:40:03.613Z,13.30
2022-09-09T06:42:33.643Z,13.30
2022-09-09T06:45:03.157Z,13.30
2022-09-09T06:47:32.710Z,13.40
2022-09-09T06:50:02.104Z,13.40
2022-09-09T06:52:31.739Z,13.40
2022-09-09T06:55:02.698Z,13.30
2022-09-09T06:57:39.285Z,13.30
2022-09-09T07:00:09.458Z,13.20
2022-09-09T07:02:43.565Z,13.20
2022-09-09T07:05:18.155Z,13.20
2022-09-09T07:07:47.798Z,13.20
2022-09-09T07:10:18.929Z,13.10
2022-09-09T07:12:48.377Z,13.00
2022-09-09T07:15:17.918Z,12.90
2022-09-09T07:17:48.117Z,13.00
2022-09-09T07:20:17.711Z,13.10
2022-09-09T07:22:47.752Z,13.10
2022-09-09T07:25:19.651Z,13.10
2022-09-09T07:27:49.139Z,13.10
2022-09-09T07:30:23.106Z,13.10
2022-09-09T07:32:59.009Z,13.20
2022-09-09T07:35:28.961Z,13.20
2022-09-09T07:37:59.913Z,13.20
2022-09-09T07:40:31.783Z,13.20
2022-09-09T07:43:01.289Z,13.20
2022-09-09T07:45:32.203Z,13.20
2022-09-09T07:48:01.746Z,13.20
2022-09-09T07:50:31.509Z,13.20
2022-09-09T07:53:01.285Z,13.20
2022-09-09T07:55:32.591Z,13.20
2022-09-09T07:58:02.114Z,13.30
2022-09-09T08:00:31.590Z,13.20
2022-09-09T08:03:03.727Z,13.20
2022-09-09T08:05:33.415Z,13.20
2022-09-09T08:08:02.864Z,13.20
2022-09-09T08:10:33.946Z,13.30
2022-09-09T08:13:19.090Z,13.40
2022-09-09T08:15:48.827Z,13.50
2022-09-09T08:18:18.271Z,13.40
2022-09-09T08:20:48.263Z,13.40
2022-09-09T08:23:17.736Z,13.40
2022-09-09T08:25:50.444Z,13.40
2022-09-09T08:28:19.886Z,13.40
2022-09-09T08:30:49.734Z,13.40
2022-09-09T08:33:19.692Z,13.40
2022-09-09T08:35:53.852Z,13.40
2022-09-09T08:38:23.350Z,13.40
2022-09-09T08:40:57.689Z,13.40
2022-09-09T08:43:27.338Z,13.40
2022-09-09T08:45:59.472Z,13.30
2022-09-09T08:48:40.217Z,13.40
2022-09-09T08:51:10.338Z,13.50
2022-09-09T08:53:42.703Z,13.50
2022-09-09T08:56:15.087Z,13.40
2022-09-09T08:58:47.263Z,13.40
2022-09-09T09:01:22.237Z,13.40
2022-09-09T09:03:55.552Z,13.30
2022-09-09T09:06:30.379Z,13.30
2022-09-09T09:09:03.356Z,13.20
2022-09-09T09:11:40.038Z,13.20
2022-09-09T09:14:12.434Z,13.20
2022-09-09T09:16:45.867Z,13.10
2022-09-09T09:19:17.215Z,13.00
2022-09-09T09:21:47.860Z,13.10
2022-09-09T09:24:21.334Z,13.10
2022-09-09T09:26:54.444Z,13.10
2022-09-09T09:29:24.785Z,13.20
2022-09-09T09:31:56.290Z,13.20
2022-09-09T09:34:26.727Z,13.30
2022-09-09T09:36:57.349Z,13.30
2022-09-09T09:42:23.900Z,13.20
2022-09-09T09:44:54.063Z,13.20
2022-09-09T09:47:25.107Z,13.20
2022-09-09T09:49:55.948Z,13.20
2022-09-09T09:52:26.692Z,13.30
2022-09-09T09:54:56.984Z,13.30
2022-09-09T09:57:30.837Z,13.30
2022-09-09T10:00:10.922Z,13.40
2022-09-09T10:02:41.574Z,13.40
2022-09-09T10:05:16.204Z,13.50
2022-09-09T10:07:47.677Z,13.60
2022-09-09T10:10:21.611Z,13.70
2022-09-09T10:12:57.872Z,13.60
2022-09-09T10:15:33.629Z,13.50
2022-09-09T10:18:08.680Z,13.40
2022-09-09T10:20:44.566Z,13.40
2022-09-09T10:23:20.525Z,13.30
2022-09-09T10:26:01.910Z,13.30
2022-09-09T10:28:42.986Z,13.40
2022-09-09T10:31:18.460Z,13.30
2022-09-09T10:33:51.982Z,13.20
2022-09-09T10:36:23.896Z,13.10
2022-09-09T10:38:56.920Z,13.10
2022-09-09T10:41:29.864Z,13.10
2022-09-09T10:44:29.217Z,13.10
2022-09-09T10:47:12.342Z,13.20
2022-09-09T10:49:53.195Z,13.30
2022-09-09T10:52:26.257Z,13.30
2022-09-09T10:55:00.272Z,13.20
2022-09-09T10:57:33.672Z,13.30
2022-09-09T11:00:06.391Z,13.20
2022-09-09T11:02:37.845Z,13.20
2022-09-09T11:05:08.711Z,13.20
2022-09-09T11:07:40.945Z,13.20
2022-09-09T11:10:18.456Z,13.20
2022-09-09T11:12:49.268Z,13.30
2022-09-09T11:15:20.464Z,13.30
2022-09-09T11:17:53.403Z,13.30
2022-09-09T11:20:23.485Z,13.40
2022-09-09T11:22:54.782Z,13.40
2022-09-09T11:25:26.647Z,13.40
2022-09-09T11:28:13.110Z,13.50
2022-09-09T11:30:56.507Z,13.50
2022-09-09T11:33:46.689Z,13.70
2022-09-09T11:36:30.408Z,13.80
2022-09-09T11:39:04.666Z,14.00
2022-09-09T11:41:38.192Z,14.10
2022-09-09T11:44:14.160Z,14.20
2022-09-09T11:46:44.526Z,14.30
2022-09-09T11:49:30.196Z,14.40
2022-09-09T11:51:59.692Z,14.50
2022-09-09T11:54:32.080Z,14.60
2022-09-09T11:57:01.843Z,14.70
2022-09-09T11:59:32.920Z,14.80
2022-09-09T12:02:03.784Z,14.90
2022-09-09T12:04:40.003Z,15.00
2022-09-09T12:07:27.615Z,15.20
2022-09-09T12:09:59.732Z,15.30
2022-09-09T12:12:33.772Z,15.40
2022-09-09T12:15:22.648Z,15.50
2022-09-09T12:17:54.720Z,15.60
2022-09-09T12:20:27.584Z,15.70
2022-09-09T12:23:15.367Z,15.80
2022-09-09T12:25:52.165Z,16.00
2022-09-09T12:28:22.050Z,16.10
2022-09-09T12:30:56.889Z,16.20
2022-09-09T12:33:26.670Z,16.30
2022-09-09T12:35:58.935Z,16.40
2022-09-09T12:38:34.021Z,16.50
2022-09-09T12:41:03.468Z,16.60
2022-09-09T12:43:33.712Z,16.70
2022-09-09T12:46:04.232Z,16.80
2022-09-09T12:48:36.531Z,16.80
2022-09-09T12:51:08.428Z,16.90
2022-09-09T12:53:40.447Z,17.00
2022-09-09T12:56:10.572Z,17.10
2022-09-09T12:58:41.726Z,17.20
2022-09-09T13:01:22.127Z,17.20
2022-09-09T13:03:51.640Z,17.30
2022-09-09T13:06:28.661Z,17.40
2022-09-09T13:09:00.136Z,17.50
2022-09-09T13:11:32.588Z,17.70
2022-09-09T13:14:02.567Z,17.70
2022-09-09T13:16:35.747Z,17.80
2022-09-09T13:19:11.157Z,17.90
2022-09-09T13:21:42.981Z,18.00
2022-09-09T13:24:27.137Z,18.10
2022-09-09T13:26:58.618Z,18.20
2022-09-09T13:29:28.072Z,18.30
2022-09-09T13:31:58.840Z,18.40
2022-09-09T13:34:31.816Z,18.50
2022-09-09T13:37:06.948Z,18.60
2022-09-09T13:39:37.946Z,18.70
2022-09-09T13:42:08.746Z,18.80
2022-09-09T13:44:39.511Z,19.00
2022-09-09T13:47:10.770Z,19.10
2022-09-09T13:49:40.568Z,19.20
2022-09-09T13:52:15.278Z,19.30
2022-09-09T13:54:44.970Z,19.40
2022-09-09T13:57:20.619Z,19.50
2022-09-09T14:00:06.332Z,19.60
2022-09-09T14:02:37.202Z,19.70
2022-09-09T14:05:07.291Z,19.80
2022-09-09T14:07:39.691Z,19.90
2022-09-09T14:10:09.761Z,20.00
2022-09-09T14:12:39.566Z,20.10
2022-09-09T14:15:10.202Z,20.30
2022-09-09T14:17:39.781Z,20.40
2022-09-09T14:20:10.770Z,20.60
2022-09-09T14:22:42.446Z,20.60
2022-09-09T14:25:13.306Z,20.70
2022-09-09T14:27:43.958Z,20.90
2022-09-09T14:30:13.916Z,21.10
2022-09-09T14:32:43.593Z,21.20
2022-09-09T14:35:14.042Z,21.30
2022-09-09T14:37:45.159Z,21.50
2022-09-09T14:40:16.037Z,21.60
2022-09-09T14:42:45.530Z,21.70
2022-09-09T14:45:49.636Z,21.80
2022-09-09T14:48:19.266Z,22.00
2022-09-09T14:50:48.745Z,22.10
2022-09-09T14:53:20.042Z,22.20
2022-09-09T14:55:49.892Z,22.30
2022-09-09T14:58:19.310Z,22.40
2022-09-09T15:00:48.773Z,22.50
2022-09-09T15:03:18.406Z,22.50
2022-09-09T15:05:47.834Z,22.70
2022-09-09T15:08:20.638Z,22.90
2022-09-09T15:10:50.077Z,22.90
2022-09-09T15:13:20.006Z,23.10
2022-09-09T15:15:52.168Z,23.30
2022-09-09T15:18:21.873Z,23.40
2022-09-09T15:20:51.786Z,23.50
2022-09-09T15:23:22.947Z,23.70
2022-09-09T15:25:56.216Z,23.80
2022-09-09T15:28:26.469Z,23.90
2022-09-09T15:30:56.834Z,24.00
2022-09-09T15:33:26.475Z,24.10
2022-09-09T15:35:55.918Z,24.20
2022-09-09T15:38:27.065Z,24.30
2022-09-09T15:40:57.625Z,24.40
2022-09-09T15:43:27.236Z,24.50
2022-09-09T15:46:00.823Z,24.60
2022-09-09T15:48:33.964Z,24.70
2022-09-09T15:51:38.110Z,24.80
2022-09-09T15:54:09.675Z,24.90
2022-09-09T15:56:39.122Z,25.00
2022-09-09T15:59:08.631Z,25.00
2022-09-09T16:01:38.354Z,25.10
2022-09-09T16:04:07.963Z,25.20
2022-09-09T16:06:37.991Z,25.30
2022-09-09T16:09:11.630Z,25.40
2022-09-09T16:11:41.338Z,25.50
2022-09-09T16:14:11.083Z,25.60
2022-09-09T16:16:40.519Z,25.70
2022-09-09T16:19:11.452Z,25.80
2022-09-09T16:21:43.417Z,26.00
2022-09-09T16:24:15.662Z,26.00
2022-09-09T16:26:46.417Z,26.10
2022-09-09T16:29:15.879Z,26.10
2022-09-09T16:31:45.403Z,26.20
2022-09-09T16:34:16.129Z,26.30
2022-09-09T16:36:46.059Z,26.60
2022-09-09T16:39:18.023Z,26.70
2022-09-09T16:41:48.996Z,27.10
2022-09-09T16:44:19.912Z,27.30
2022-09-09T16:46:50.228Z,27.30
2022-09-09T16:49:19.837Z,27.50
2022-09-09T16:51:49.956Z,27.70
2022-09-09T16:54:21.504Z,28.00
2022-09-09T16:56:51.534Z,28.30
2022-09-09T16:59:21.799Z,28.40
2022-09-09T17:01:52.202Z,28.60
2022-09-09T17:04:25.464Z,28.60
2022-09-09T17:06:55.632Z,28.70
2022-09-09T17:09:29.154Z,28.70
2022-09-09T17:11:58.537Z,28.90
2022-09-09T17:14:27.976Z,28.90
2022-09-09T17:17:31.254Z,28.90
2022-09-09T17:20:02.181Z,28.90
2022-09-09T17:22:31.608Z,28.90
2022-09-09T17:25:02.851Z,28.70
2022-09-09T17:27:33.529Z,28.70
2022-09-09T17:30:04.217Z,28.90
2022-09-09T17:32:33.696Z,29.00
2022-09-09T17:35:03.128Z,28.50
2022-09-09T17:37:32.789Z,28.70
2022-09-09T17:40:05.514Z,29.00
2022-09-09T17:42:35.362Z,28.90
2022-09-09T17:45:04.785Z,28.80
2022-09-09T17:47:34.381Z,29.00
2022-09-09T17:50:03.914Z,29.00
2022-09-09T17:52:33.681Z,29.20
2022-09-09T17:55:04.752Z,29.00
2022-09-09T17:57:34.829Z,29.40
2022-09-09T18:00:04.745Z,29.40
2022-09-09T18:02:34.232Z,29.40
2022-09-09T18:05:04.107Z,29.50
2022-09-09T18:07:34.264Z,29.70
2022-09-09T18:10:05.565Z,29.80
2022-09-09T18:12:35.464Z,30.10
2022-09-09T18:15:06.054Z,30.20
2022-09-09T18:20:05.828Z,30.50
2022-09-09T18:22:35.785Z,30.40
2022-09-09T18:25:07.349Z,30.60
2022-09-09T18:27:36.906Z,30.20
2022-09-09T18:30:06.640Z,30.20
2022-09-09T18:32:36.165Z,30.40
2022-09-09T18:35:05.657Z,30.40
2022-09-09T18:37:36.808Z,30.50
2022-09-09T18:40:20.757Z,30.40
2022-09-09T18:42:50.243Z,30.20
2022-09-09T18:45:20.204Z,30.00
2022-09-09T18:47:50.471Z,30.20
2022-09-09T18:50:20.183Z,30.20
2022-09-09T18:52:50.009Z,30.30
2022-09-09T18:55:21.207Z,30.50
2022-09-09T18:57:51.366Z,30.70
2022-09-09T19:00:20.880Z,30.60
2022-09-09T19:02:53.829Z,30.60
2022-09-09T19:05:23.211Z,30.50
2022-09-09T19:07:56.567Z,30.60
2022-09-09T19:10:27.799Z,30.50
2022-09-09T19:12:57.283Z,30.30
2022-09-09T19:15:27.415Z,29.90
2022-09-09T19:17:57.102Z,29.80
2022-09-09T19:20:27.098Z,29.90
2022-09-09T19:22:56.934Z,29.90
2022-09-09T19:25:28.484Z,30.00
2022-09-09T19:27:59.247Z,30.00
2022-09-09T19:30:28.835Z,30.10
2022-09-09T19:32:59.675Z,30.10
2022-09-09T19:35:29.301Z,30.20
2022-09-09T19:37:59.954Z,30.10
2022-09-09T19:40:32.475Z,30.20
2022-09-09T19:43:02.351Z,30.10
2022-09-09T19:45:31.803Z,29.70
2022-09-09T19:48:01.426Z,29.60
2022-09-09T19:50:30.886Z,29.80
2022-09-09T19:53:00.742Z,29.80
2022-09-09T19:55:33.011Z,30.00
2022-09-09T19:58:02.689Z,30.10
2022-09-09T20:00:32.165Z,30.20
2022-09-09T20:03:18.126Z,30.20
2022-09-09T20:05:49.448Z,30.00
2022-09-09T20:08:19.130Z,29.80
2022-09-09T20:10:58.947Z,29.70
2022-09-09T20:13:28.430Z,29.70
2022-09-09T20:16:02.387Z,29.60
2022-09-09T20:18:32.949Z,29.60
2022-09-09T20:21:03.615Z,29.30
2022-09-09T20:23:34.378Z,29.20
2022-09-09T20:26:07.219Z,29.20
2022-09-09T20:28:37.708Z,29.20
2022-09-09T20:31:07.420Z,29.20
2022-09-09T20:33:37.045Z,29.40
2022-09-09T20:36:12.220Z,29.50
2022-09-09T20:38:44.498Z,29.50
2022-09-09T20:41:19.136Z,29.80
2022-09-09T20:43:50.139Z,29.80
2022-09-09T20:46:22.363Z,29.80
2022-09-09T20:48:52.484Z,29.80
2022-09-09T20:51:22.178Z,29.40
2022-09-09T20:53:57.591Z,29.00
2022-09-09T20:56:29.393Z,28.90
2022-09-09T20:58:59.036Z,28.80
2022-09-09T21:01:28.860Z,28.90
2022-09-09T21:03:58.845Z,29.10
2022-09-09T21:06:28.317Z,29.20
2022-09-09T21:08:57.788Z,29.10
2022-09-09T21:11:29.202Z,28.90
2022-09-09T21:14:00.239Z,28.70
2022-09-09T21:16:29.949Z,28.80
2022-09-09T21:19:00.905Z,28.90
2022-09-09T21:21:30.321Z,28.90
2022-09-09T21:24:01.180Z,28.80
2022-09-09T21:26:32.157Z,28.70
2022-09-09T21:29:01.772Z,28.60
2022-09-09T21:31:31.910Z,28.40
2022-09-09T21:34:34.623Z,28.40
2022-09-09T21:37:09.910Z,28.40
2022-09-09T21:39:40.629Z,28.40
2022-09-09T21:42:12.258Z,28.20
2022-09-09T21:44:41.932Z,28.00
2022-09-09T21:47:11.368Z,27.80
2022-09-09T21:49:40.950Z,27.50
2022-09-09T21:52:10.447Z,27.30
2022-09-09T21:54:40.404Z,27.10
2022-09-09T21:57:10.352Z,26.80
2022-09-09T21:59:41.314Z,26.50
2022-09-09T22:02:11.472Z,26.30
2022-09-09T22:04:41.016Z,26.20
2022-09-09T22:07:10.628Z,26.10
2022-09-09T22:09:40.108Z,25.90
2022-09-09T22:12:09.768Z,25.70
2022-09-09T22:14:41.243Z,25.50
2022-09-09T22:17:10.620Z,25.40
2022-09-09T22:19:41.347Z,25.20
2022-09-09T22:22:11.012Z,25.00
2022-09-09T22:24:41.144Z,24.80
2022-09-09T22:27:10.627Z,24.60
2022-09-09T22:29:42.029Z,24.50
2022-09-09T22:32:12.184Z,24.20
2022-09-09T22:34:41.871Z,24.00
2022-09-09T22:37:11.830Z,23.90
2022-09-09T22:39:41.602Z,23.70
2022-09-09T22:42:11.158Z,23.60
2022-09-09T22:44:42.412Z,23.40
2022-09-09T22:47:11.817Z,23.20
2022-09-09T22:49:41.605Z,23.10
2022-09-09T22:52:11.523Z,22.90
2022-09-09T22:54:43.456Z,22.80
2022-09-09T22:57:13.132Z,22.70
2022-09-09T22:59:44.152Z,22.60
2022-09-09T23:02:13.901Z,22.40
2022-09-09T23:04:43.330Z,22.30
2022-09-09T23:07:12.901Z,22.20
2022-09-09T23:09:42.402Z,22.00
2022-09-09T23:12:12.690Z,21.90
2022-09-09T23:14:44.402Z,21.70
2022-09-09T23:17:19.510Z,21.60
2022-09-09T23:19:53.904Z,21.40
2022-09-09T23:22:24.291Z,21.30
2022-09-09T23:24:55.900Z,21.10
2022-09-09T23:27:26.187Z,21.00
2022-09-09T23:29:57.523Z,20.90
2022-09-09T23:32:27.086Z,20.80
2022-09-09T23:34:56.788Z,20.80
2022-09-09T23:37:27.481Z,20.60
2022-09-09T23:39:57.154Z,20.50
2022-09-09T23:42:27.555Z,20.40
2022-09-09T23:44:58.865Z,20.30
2022-09-09T23:47:31.152Z,20.10
2022-09-09T23:50:00.753Z,19.90
2022-09-09T23:52:30.240Z,19.80
2022-09-09T23:55:00.124Z,19.70
2022-09-09T23:57:29.977Z,19.50
